Terminal Aerodrome Forecast
Issued by NWS

Home | Current Version | Previous Version | Text Only | Print | Product List | Glossary Off
Versions: 1 2 3 4 5 6 7 8 9 10 11 12 13 14

000
FTUS41 KCLE 010500
TAFFDY
TAF
KFDY 010520Z 0106/0206 VRB03KT P6SM VCSH BKN060
     FM011000 33005KT P6SM BKN100
     FM011200 35006KT P6SM SCT100
     FM011400 35006KT P6SM SKC=

USA.gov is the U.S. government's official web portal to all federal, state and local government web resources and services.